Time;durP1;ratioP1;P1;durP2;ratioP2;P2;SDS_P1;SDS_P2;PMS_P1;PMS_P2;Temp;Humidity;BMP_temperature;BMP_pressure;BME280_temperature;BME280_humidity;BME280_pressure;Samples;Min_cycle;Max_cycle;Signal;HPM_P1;HPM_P2
2023/08/07 00:00:33;;;;;;;2.15;1.40;;;;;;;;;;5075965;28;20028;-77
2023/08/07 00:02:59;;;;;;;1.67;1.25;;;;;;;;;;5076316;28;20031;-77
2023/08/07 00:05:24;;;;;;;1.48;1.38;;;;;;;;;;5076178;28;20028;-77
2023/08/07 00:07:52;;;;;;;2.63;1.30;;;;;;;;;;5075493;28;20032;-75
2023/08/07 00:10:17;;;;;;;1.48;1.20;;;;;;;;;;5057194;28;20387;-77
2023/08/07 00:12:45;;;;;;;2.00;1.30;;;;;;;;;;5075025;28;20024;-75
2023/08/07 00:15:11;;;;;;;1.35;1.17;;;;;;;;;;5075883;28;20103;-77
2023/08/07 00:17:37;;;;;;;2.92;1.27;;;;;;;;;;5057942;28;20040;-77
2023/08/07 00:20:03;;;;;;;1.52;1.20;;;;;;;;;;5075463;28;20078;-79
2023/08/07 00:22:28;;;;;;;1.27;1.17;;;;;;;;;;5057784;28;20036;-77
2023/08/07 00:24:53;;;;;;;1.93;1.20;;;;;;;;;;5057614;28;20115;-76
2023/08/07 00:27:19;;;;;;;1.63;1.27;;;;;;;;;;5075242;28;20260;-76
2023/08/07 00:29:44;;;;;;;1.73;1.30;;;;;;;;;;5056963;28;20478;-77
2023/08/07 00:32:09;;;;;;;1.33;1.23;;;;;;;;;;5057278;28;20344;-77
2023/08/07 00:34:34;;;;;;;2.50;1.20;;;;;;;;;;5075508;28;20258;-77
2023/08/07 00:37:00;;;;;;;3.90;1.30;;;;;;;;;;5075522;28;20432;-77
2023/08/07 00:39:25;;;;;;;3.03;1.20;;;;;;;;;;5057202;28;20257;-77
2023/08/07 00:41:50;;;;;;;2.25;1.10;;;;;;;;;;5057307;28;20051;-77
2023/08/07 00:44:16;;;;;;;2.55;1.27;;;;;;;;;;5075805;28;20062;-78
2023/08/07 00:46:42;;;;;;;2.80;1.20;;;;;;;;;;5077370;28;20024;-77
2023/08/07 00:49:10;;;;;;;3.67;1.33;;;;;;;;;;5057214;28;20048;-77
2023/08/07 00:51:37;;;;;;;1.83;1.10;;;;;;;;;;5075112;28;20503;-77
2023/08/07 00:54:04;;;;;;;1.33;1.20;;;;;;;;;;5075800;28;20040;-77
2023/08/07 00:56:31;;;;;;;2.05;1.30;;;;;;;;;;5075612;28;20099;-77
2023/08/07 00:58:58;;;;;;;1.10;1.00;;;;;;;;;;5058573;28;20034;-77
2023/08/07 01:01:23;;;;;;;1.58;1.00;;;;;;;;;;5042039;28;20115;-77
2023/08/07 01:03:49;;;;;;;3.88;1.35;;;;;;;;;;5077105;28;20105;-77
2023/08/07 01:06:14;;;;;;;7.18;1.48;;;;;;;;;;5075445;28;20029;-77
2023/08/07 01:08:39;;;;;;;2.08;1.45;;;;;;;;;;5074394;28;20028;-77
2023/08/07 01:11:18;;;;;;;3.42;1.58;;;;;;;;;;5074533;28;20017;-78
2023/08/07 01:13:55;;;;;;;3.05;1.80;;;;;;;;;;5074708;28;20495;-77
2023/08/07 01:16:31;;;;;;;4.18;1.88;;;;;;;;;;5074256;28;20025;-77
2023/08/07 01:18:57;;;;;;;2.92;1.80;;;;;;;;;;5075116;28;20020;-77
2023/08/07 01:21:22;;;;;;;2.55;1.75;;;;;;;;;;5076257;28;20023;-77
2023/08/07 01:23:48;;;;;;;2.55;1.83;;;;;;;;;;5075112;28;20376;-77
2023/08/07 01:26:14;;;;;;;2.33;1.60;;;;;;;;;;5077061;28;20043;-77
2023/08/07 01:28:46;;;;;;;4.00;1.58;;;;;;;;;;5073925;28;20027;-77
2023/08/07 01:31:15;;;;;;;2.70;1.70;;;;;;;;;;5075500;28;20027;-77
2023/08/07 01:34:08;;;;;;;3.65;1.65;;;;;;;;;;5074066;28;20077;-76
2023/08/07 01:36:34;;;;;;;2.05;1.55;;;;;;;;;;5056015;28;20082;-78
2023/08/07 01:39:01;;;;;;;3.85;1.70;;;;;;;;;;5079144;28;20469;-78
2023/08/07 01:41:27;;;;;;;4.10;1.70;;;;;;;;;;5077603;28;20020;-78
2023/08/07 01:43:54;;;;;;;2.13;1.65;;;;;;;;;;5057100;28;20391;-78
2023/08/07 01:46:19;;;;;;;2.80;1.50;;;;;;;;;;5055553;28;20027;-78
2023/08/07 01:48:45;;;;;;;3.25;1.80;;;;;;;;;;5055289;28;20088;-78
2023/08/07 01:51:10;;;;;;;3.78;1.40;;;;;;;;;;5075291;28;20027;-78
2023/08/07 01:53:35;;;;;;;3.75;1.73;;;;;;;;;;5076358;28;20028;-78
2023/08/07 01:56:01;;;;;;;1.50;1.40;;;;;;;;;;5074893;28;20336;-78
2023/08/07 01:58:26;;;;;;;3.25;1.60;;;;;;;;;;5076369;28;20028;-77
2023/08/07 02:00:51;;;;;;;6.57;1.75;;;;;;;;;;5075130;28;20071;-78
2023/08/07 02:03:16;;;;;;;2.63;1.60;;;;;;;;;;5075297;28;20107;-78
2023/08/07 02:05:45;;;;;;;1.63;1.50;;;;;;;;;;5057496;28;20020;-78
2023/08/07 02:08:10;;;;;;;4.57;1.60;;;;;;;;;;5073730;28;20074;-78
2023/08/07 02:10:35;;;;;;;2.35;1.70;;;;;;;;;;5056148;28;20024;-77
2023/08/07 02:13:01;;;;;;;3.25;1.63;;;;;;;;;;5057857;28;20048;-78
2023/08/07 02:15:26;;;;;;;3.05;1.80;;;;;;;;;;5056266;28;20370;-77
2023/08/07 02:17:51;;;;;;;3.38;1.83;;;;;;;;;;5073112;28;20029;-77
2023/08/07 02:20:17;;;;;;;2.85;1.90;;;;;;;;;;5073295;28;20045;-77
2023/08/07 02:22:42;;;;;;;2.22;1.83;;;;;;;;;;5054935;28;20471;-78
2023/08/07 02:25:08;;;;;;;3.73;2.00;;;;;;;;;;5074826;28;20031;-78
2023/08/07 02:27:33;;;;;;;3.97;2.17;;;;;;;;;;5055103;28;20260;-75
2023/08/07 02:29:58;;;;;;;4.70;2.30;;;;;;;;;;5076983;28;20024;-77
2023/08/07 02:32:23;;;;;;;5.53;2.08;;;;;;;;;;5075280;28;20261;-77
2023/08/07 02:34:49;;;;;;;2.53;2.15;;;;;;;;;;5073115;28;20031;-77
2023/08/07 02:37:14;;;;;;;3.42;1.88;;;;;;;;;;5054609;28;20024;-77
2023/08/07 02:39:39;;;;;;;6.85;2.28;;;;;;;;;;5072483;28;20017;-76
2023/08/07 02:42:05;;;;;;;3.13;2.00;;;;;;;;;;5073185;28;20028;-77
2023/08/07 02:44:30;;;;;;;5.60;2.28;;;;;;;;;;5074786;28;20301;-77
2023/08/07 02:46:56;;;;;;;2.30;2.00;;;;;;;;;;5077574;28;20151;-76
2023/08/07 02:49:21;;;;;;;3.38;2.22;;;;;;;;;;5060514;28;20557;-78
2023/08/07 02:51:46;;;;;;;4.80;2.25;;;;;;;;;;5060328;28;20052;-78
2023/08/07 02:54:11;;;;;;;4.50;2.10;;;;;;;;;;5077738;28;20093;-78
2023/08/07 02:56:37;;;;;;;4.60;2.20;;;;;;;;;;5077026;28;20027;-78
2023/08/07 02:59:02;;;;;;;4.32;2.20;;;;;;;;;;5077491;28;20371;-78
2023/08/07 03:01:28;;;;;;;3.13;2.45;;;;;;;;;;5058418;28;20017;-77
2023/08/07 03:03:53;;;;;;;3.55;2.20;;;;;;;;;;5058158;28;20032;-77
2023/08/07 03:06:18;;;;;;;3.00;2.35;;;;;;;;;;5076164;28;20053;-77
2023/08/07 03:08:44;;;;;;;4.03;2.35;;;;;;;;;;5076252;28;20028;-77
2023/08/07 03:11:09;;;;;;;4.15;2.67;;;;;;;;;;5076048;28;20031;-77
2023/08/07 03:13:34;;;;;;;4.28;2.38;;;;;;;;;;5076262;28;20479;-77
2023/08/07 03:16:01;;;;;;;4.68;2.28;;;;;;;;;;5076525;28;20024;-77
2023/08/07 03:18:27;;;;;;;15.70;2.70;;;;;;;;;;5058323;28;20051;-78
2023/08/07 03:20:53;;;;;;;17.27;2.53;;;;;;;;;;5076145;28;20073;-78
2023/08/07 03:23:18;;;;;;;2.67;1.75;;;;;;;;;;5076172;28;20406;-78
2023/08/07 03:25:43;;;;;;;2.90;1.93;;;;;;;;;;5076262;28;20586;-78
2023/08/07 03:28:08;;;;;;;2.65;1.60;;;;;;;;;;5075975;28;20621;-77
2023/08/07 03:30:34;;;;;;;3.50;1.63;;;;;;;;;;5075892;28;20020;-77
2023/08/07 03:32:59;;;;;;;2.00;1.33;;;;;;;;;;5076906;28;20042;-78
2023/08/07 03:35:24;;;;;;;2.07;1.43;;;;;;;;;;5058780;28;20016;-78
2023/08/07 03:37:49;;;;;;;4.55;1.77;;;;;;;;;;5076516;28;20359;-77
2023/08/07 03:40:15;;;;;;;3.35;1.40;;;;;;;;;;5076421;28;20103;-77
2023/08/07 03:42:40;;;;;;;2.63;1.70;;;;;;;;;;5058618;28;20024;-77
2023/08/07 03:45:06;;;;;;;1.92;1.48;;;;;;;;;;5076518;28;20460;-77
2023/08/07 03:47:31;;;;;;;1.80;1.55;;;;;;;;;;5057993;28;20035;-77
2023/08/07 03:49:56;;;;;;;3.30;1.90;;;;;;;;;;5075751;28;20023;-78
2023/08/07 03:52:22;;;;;;;3.38;1.73;;;;;;;;;;5077605;28;20756;-78
2023/08/07 03:54:47;;;;;;;2.83;1.95;;;;;;;;;;5076161;28;20017;-77
2023/08/07 03:57:12;;;;;;;3.22;1.80;;;;;;;;;;5057722;28;20145;-78
2023/08/07 03:59:37;;;;;;;3.33;1.70;;;;;;;;;;5058142;28;20028;-77
2023/08/07 04:02:03;;;;;;;4.60;1.92;;;;;;;;;;5075903;28;20028;-76
2023/08/07 04:04:28;;;;;;;5.20;1.80;;;;;;;;;;5076275;28;20036;-76
2023/08/07 04:06:53;;;;;;;3.13;2.00;;;;;;;;;;5075566;28;20036;-77
2023/08/07 04:09:19;;;;;;;3.40;2.00;;;;;;;;;;5075778;28;20016;-77
2023/08/07 04:11:44;;;;;;;3.15;1.67;;;;;;;;;;5057304;28;20082;-77
2023/08/07 04:14:10;;;;;;;2.95;1.60;;;;;;;;;;5076477;28;20438;-78
2023/08/07 04:16:36;;;;;;;1.98;1.77;;;;;;;;;;5075923;28;20020;-78
2023/08/07 04:19:02;;;;;;;3.38;1.75;;;;;;;;;;5057958;28;20070;-77
2023/08/07 04:21:27;;;;;;;4.80;2.20;;;;;;;;;;5075527;28;20025;-77
2023/08/07 04:23:52;;;;;;;2.88;1.90;;;;;;;;;;5058221;28;20055;-77
2023/08/07 04:26:18;;;;;;;2.97;2.00;;;;;;;;;;5057596;28;20024;-77
2023/08/07 04:28:43;;;;;;;4.82;2.10;;;;;;;;;;5077597;28;20029;-76
2023/08/07 04:31:08;;;;;;;4.50;2.25;;;;;;;;;;5056753;28;20434;-77
2023/08/07 04:33:34;;;;;;;2.78;1.90;;;;;;;;;;5074833;28;20483;-77
2023/08/07 04:35:59;;;;;;;4.32;2.30;;;;;;;;;;5074802;28;20032;-77
2023/08/07 04:38:25;;;;;;;3.42;2.58;;;;;;;;;;5074886;28;20032;-77
2023/08/07 04:40:50;;;;;;;3.28;2.40;;;;;;;;;;5056744;28;20024;-77
2023/08/07 04:43:17;;;;;;;4.57;2.90;;;;;;;;;;5074489;28;20476;-77
2023/08/07 04:45:44;;;;;;;4.95;2.70;;;;;;;;;;5056494;28;20032;-77
2023/08/07 04:48:11;;;;;;;4.60;2.90;;;;;;;;;;5074348;28;20024;-77
2023/08/07 04:50:36;;;;;;;5.72;2.88;;;;;;;;;;5058168;28;20021;-77
2023/08/07 04:53:02;;;;;;;7.22;2.85;;;;;;;;;;5057798;28;20036;-77
2023/08/07 04:55:27;;;;;;;4.90;2.78;;;;;;;;;;5075563;28;20025;-77
2023/08/07 04:57:54;;;;;;;5.55;2.80;;;;;;;;;;5057549;28;20028;-77
2023/08/07 05:00:20;;;;;;;6.28;3.17;;;;;;;;;;5074456;28;20059;-75
2023/08/07 05:02:47;;;;;;;7.75;3.30;;;;;;;;;;5056336;28;20021;-77
2023/08/07 05:05:14;;;;;;;4.10;3.08;;;;;;;;;;5074755;28;20024;-77
2023/08/07 05:07:39;;;;;;;3.88;2.90;;;;;;;;;;5074498;28;20024;-78
2023/08/07 05:10:05;;;;;;;5.47;3.40;;;;;;;;;;5059887;28;20388;-79
2023/08/07 05:12:30;;;;;;;6.13;3.83;;;;;;;;;;5059296;28;20043;-79
2023/08/07 05:14:56;;;;;;;6.47;3.40;;;;;;;;;;5060062;28;20387;-80
2023/08/07 05:17:21;;;;;;;4.78;3.53;;;;;;;;;;5077595;28;20031;-79
2023/08/07 05:19:47;;;;;;;6.15;3.72;;;;;;;;;;5077490;28;20021;-79
2023/08/07 05:22:12;;;;;;;4.10;3.22;;;;;;;;;;5077149;28;20469;-79
2023/08/07 05:24:40;;;;;;;4.13;3.22;;;;;;;;;;5077075;28;20025;-80
2023/08/07 05:27:08;;;;;;;8.65;3.60;;;;;;;;;;5079819;28;20514;-80
2023/08/07 05:29:33;;;;;;;7.28;3.50;;;;;;;;;;5082034;28;20021;-79
2023/08/07 05:31:58;;;;;;;6.60;3.38;;;;;;;;;;5078890;28;20043;-78
2023/08/07 05:34:24;;;;;;;8.05;3.58;;;;;;;;;;5079810;28;20423;-78
2023/08/07 05:36:49;;;;;;;5.43;3.03;;;;;;;;;;5080942;28;20028;-77
2023/08/07 05:39:14;;;;;;;7.00;3.60;;;;;;;;;;5080440;28;20085;-80
2023/08/07 05:41:39;;;;;;;4.28;3.03;;;;;;;;;;5078207;28;20264;-79
2023/08/07 05:44:05;;;;;;;7.00;2.92;;;;;;;;;;5076951;28;20024;-79
2023/08/07 05:46:30;;;;;;;6.10;3.47;;;;;;;;;;5078302;28;20051;-82
2023/08/07 05:48:56;;;;;;;11.95;3.13;;;;;;;;;;5076801;28;20024;-76
2023/08/07 05:51:21;;;;;;;5.70;3.17;;;;;;;;;;5058563;28;20024;-82
2023/08/07 05:53:47;;;;;;;7.53;2.97;;;;;;;;;;5076962;28;20028;-79
2023/08/07 05:56:12;;;;;;;6.65;3.28;;;;;;;;;;5076585;28;20107;-79
2023/08/07 05:58:37;;;;;;;5.35;2.60;;;;;;;;;;5075966;28;20024;-79
2023/08/07 06:01:02;;;;;;;4.20;2.40;;;;;;;;;;5077043;28;20021;-79
2023/08/07 06:03:28;;;;;;;5.22;2.33;;;;;;;;;;5076637;28;20281;-80
2023/08/07 06:05:53;;;;;;;7.28;2.55;;;;;;;;;;5077224;28;20463;-78
2023/08/07 06:08:19;;;;;;;4.55;2.45;;;;;;;;;;5076502;28;20024;-78
2023/08/07 06:10:44;;;;;;;3.30;2.58;;;;;;;;;;5055042;28;20490;-77
2023/08/07 06:13:09;;;;;;;6.78;2.40;;;;;;;;;;5072807;28;20025;-76
2023/08/07 06:15:34;;;;;;;3.40;2.20;;;;;;;;;;5072904;28;20032;-77
2023/08/07 06:18:00;;;;;;;4.05;2.28;;;;;;;;;;5054709;28;20060;-76
2023/08/07 06:20:25;;;;;;;3.47;2.22;;;;;;;;;;5072819;28;20024;-77
2023/08/07 06:22:50;;;;;;;5.38;2.13;;;;;;;;;;5054501;28;20029;-77
2023/08/07 06:25:16;;;;;;;3.65;1.90;;;;;;;;;;5073504;28;20031;-77
2023/08/07 06:27:41;;;;;;;3.03;1.85;;;;;;;;;;5072070;28;20100;-76
2023/08/07 06:30:07;;;;;;;5.00;1.97;;;;;;;;;;5072648;28;20012;-76
2023/08/07 06:32:32;;;;;;;8.68;1.88;;;;;;;;;;5071298;28;20542;-76
2023/08/07 06:34:58;;;;;;;4.03;1.75;;;;;;;;;;5072190;28;20029;-77
2023/08/07 06:37:23;;;;;;;3.03;1.70;;;;;;;;;;5054680;28;20052;-75
2023/08/07 06:39:48;;;;;;;2.40;1.75;;;;;;;;;;5072535;28;20390;-77
2023/08/07 06:42:14;;;;;;;2.90;1.67;;;;;;;;;;5053531;28;20016;-76
2023/08/07 06:44:39;;;;;;;2.08;1.60;;;;;;;;;;5072133;28;20028;-74
2023/08/07 06:47:04;;;;;;;2.00;1.63;;;;;;;;;;5073161;28;20033;-77
2023/08/07 06:49:31;;;;;;;3.95;1.67;;;;;;;;;;5054982;28;20289;-76
2023/08/07 06:51:57;;;;;;;2.70;1.67;;;;;;;;;;5072623;28;20043;-77
2023/08/07 06:54:22;;;;;;;2.97;1.80;;;;;;;;;;5072873;28;20025;-77
2023/08/07 06:56:47;;;;;;;3.63;1.70;;;;;;;;;;5072488;28;20048;-76
2023/08/07 06:59:13;;;;;;;4.60;1.73;;;;;;;;;;5072466;28;20620;-77
2023/08/07 07:01:38;;;;;;;2.30;1.65;;;;;;;;;;5054386;28;20025;-77
2023/08/07 07:04:03;;;;;;;2.28;1.55;;;;;;;;;;5072724;28;20496;-76
2023/08/07 07:06:29;;;;;;;1.73;1.52;;;;;;;;;;5072358;28;20025;-77
2023/08/07 07:08:54;;;;;;;2.20;1.75;;;;;;;;;;5072391;28;20094;-76
2023/08/07 07:11:22;;;;;;;1.73;1.50;;;;;;;;;;5072323;28;20107;-77
2023/08/07 07:13:47;;;;;;;1.55;1.30;;;;;;;;;;5072375;28;20021;-76
2023/08/07 07:16:13;;;;;;;4.22;1.60;;;;;;;;;;5054336;28;20078;-77
2023/08/07 07:18:39;;;;;;;2.08;1.70;;;;;;;;;;5072303;28;20020;-77
2023/08/07 07:21:04;;;;;;;8.18;2.33;;;;;;;;;;5072429;28;20058;-76
2023/08/07 07:23:30;;;;;;;3.47;1.70;;;;;;;;;;5072001;28;20120;-76
2023/08/07 07:25:55;;;;;;;3.35;1.70;;;;;;;;;;5072493;28;20468;-76
2023/08/07 07:28:21;;;;;;;1.88;1.17;;;;;;;;;;5072585;28;20098;-75
2023/08/07 07:30:46;;;;;;;1.88;1.30;;;;;;;;;;5073802;28;20472;-75
2023/08/07 07:33:13;;;;;;;7.57;1.52;;;;;;;;;;5058263;28;20052;-76
2023/08/07 07:35:39;;;;;;;2.95;1.30;;;;;;;;;;5075871;28;20028;-75
2023/08/07 07:38:05;;;;;;;4.35;1.10;;;;;;;;;;5075744;28;20024;-77
2023/08/07 07:40:30;;;;;;;1.52;1.20;;;;;;;;;;5075809;28;20055;-76
2023/08/07 07:42:56;;;;;;;6.72;1.50;;;;;;;;;;5057598;28;20482;-77
2023/08/07 07:45:21;;;;;;;1.30;1.20;;;;;;;;;;5076016;28;20108;-77
2023/08/07 07:47:46;;;;;;;1.63;1.52;;;;;;;;;;5075621;28;20268;-75
2023/08/07 07:50:12;;;;;;;1.70;1.17;;;;;;;;;;5057451;28;20099;-77
2023/08/07 07:52:38;;;;;;;3.42;1.25;;;;;;;;;;5075361;28;20261;-76
2023/08/07 07:55:04;;;;;;;2.10;1.20;;;;;;;;;;5074738;28;20107;-76
2023/08/07 07:57:30;;;;;;;2.30;1.40;;;;;;;;;;5073853;28;20036;-76
2023/08/07 07:59:55;;;;;;;1.85;1.10;;;;;;;;;;5073795;28;20122;-75
2023/08/07 08:02:22;;;;;;;2.70;1.30;;;;;;;;;;5075276;28;20020;-76
2023/08/07 08:04:48;;;;;;;3.42;1.15;;;;;;;;;;5075828;28;20052;-75
2023/08/07 08:07:13;;;;;;;1.17;1.08;;;;;;;;;;5075558;28;20481;-77
2023/08/07 08:09:38;;;;;;;1.30;1.10;;;;;;;;;;5057102;28;20028;-75
2023/08/07 08:12:04;;;;;;;5.82;1.20;;;;;;;;;;5075068;28;20111;-75
2023/08/07 08:14:29;;;;;;;2.05;1.10;;;;;;;;;;5075376;28;20400;-76
2023/08/07 08:16:54;;;;;;;1.38;1.00;;;;;;;;;;5075023;28;20104;-76
2023/08/07 08:19:20;;;;;;;1.83;0.90;;;;;;;;;;5075099;28;20033;-76
2023/08/07 08:21:45;;;;;;;4.28;1.05;;;;;;;;;;5074786;28;20261;-76
2023/08/07 08:24:10;;;;;;;2.10;0.90;;;;;;;;;;5075291;28;20406;-75
2023/08/07 08:26:35;;;;;;;1.63;0.70;;;;;;;;;;5074952;28;20264;-76
2023/08/07 08:29:01;;;;;;;1.67;1.27;;;;;;;;;;5057060;28;20020;-77
2023/08/07 08:31:26;;;;;;;1.08;0.95;;;;;;;;;;5056597;28;20407;-76
2023/08/07 08:33:51;;;;;;;1.70;1.00;;;;;;;;;;5075003;28;20024;-77
2023/08/07 08:36:17;;;;;;;2.83;0.85;;;;;;;;;;5075144;28;20020;-77
2023/08/07 08:38:45;;;;;;;1.20;1.00;;;;;;;;;;5056929;28;20111;-77
2023/08/07 08:41:10;;;;;;;1.95;0.85;;;;;;;;;;5056527;28;20031;-75
2023/08/07 08:43:37;;;;;;;2.92;1.00;;;;;;;;;;5074388;28;20017;-77
2023/08/07 08:46:05;;;;;;;3.22;1.13;;;;;;;;;;5074722;28;20033;-76
2023/08/07 08:48:34;;;;;;;2.58;1.20;;;;;;;;;;5056511;28;20090;-76
2023/08/07 08:50:59;;;;;;;1.42;1.20;;;;;;;;;;5074517;28;20029;-76
2023/08/07 08:53:25;;;;;;;5.93;1.08;;;;;;;;;;5074532;28;20460;-76
2023/08/07 08:55:52;;;;;;;1.90;1.00;;;;;;;;;;5074794;28;20028;-76
2023/08/07 08:58:17;;;;;;;2.17;1.13;;;;;;;;;;5074869;28;20031;-76
2023/08/07 09:00:43;;;;;;;1.10;1.00;;;;;;;;;;5074058;28;20020;-75
2023/08/07 09:03:08;;;;;;;2.17;0.98;;;;;;;;;;5072523;28;20020;-77
2023/08/07 09:05:35;;;;;;;1.90;0.98;;;;;;;;;;5073971;28;20035;-75
2023/08/07 09:08:01;;;;;;;0.93;0.80;;;;;;;;;;5073921;28;20025;-75
2023/08/07 09:10:27;;;;;;;1.30;1.00;;;;;;;;;;5074173;28;20040;-76
2023/08/07 09:13:05;;;;;;;1.17;0.70;;;;;;;;;;5072552;28;20028;-76
2023/08/07 09:15:31;;;;;;;1.80;0.85;;;;;;;;;;5054507;28;20024;-77
2023/08/07 09:17:58;;;;;;;1.42;0.77;;;;;;;;;;5056608;28;20020;-77
2023/08/07 09:20:24;;;;;;;1.27;0.80;;;;;;;;;;5074004;28;20103;-77
2023/08/07 09:22:51;;;;;;;10.15;0.90;;;;;;;;;;5078295;28;20044;-79
2023/08/07 09:25:32;;;;;;;1.00;0.90;;;;;;;;;;5062540;28;20032;-77
2023/08/07 09:28:01;;;;;;;1.05;0.70;;;;;;;;;;5078966;28;20082;-79
2023/08/07 09:30:28;;;;;;;4.88;0.93;;;;;;;;;;5077041;28;20032;-78
2023/08/07 09:32:54;;;;;;;7.88;1.13;;;;;;;;;;5075703;28;20527;-78
2023/08/07 09:35:22;;;;;;;0.93;0.70;;;;;;;;;;5076190;28;20067;-78
2023/08/07 09:37:48;;;;;;;2.38;0.85;;;;;;;;;;5077296;28;20020;-79
2023/08/07 09:40:15;;;;;;;1.17;0.80;;;;;;;;;;5059323;28;20059;-78
2023/08/07 09:42:41;;;;;;;0.70;0.70;;;;;;;;;;5077086;28;20078;-78
2023/08/07 09:45:20;;;;;;;2.50;0.90;;;;;;;;;;5076659;28;20024;-78
2023/08/07 09:47:45;;;;;;;3.42;0.90;;;;;;;;;;5077418;28;20098;-77
2023/08/07 09:50:16;;;;;;;2.28;0.95;;;;;;;;;;5076368;28;20467;-78
2023/08/07 09:52:45;;;;;;;2.65;0.77;;;;;;;;;;5075112;28;20506;-77
2023/08/07 09:55:12;;;;;;;2.63;0.90;;;;;;;;;;5076272;28;20130;-79
2023/08/07 09:57:38;;;;;;;1.45;0.80;;;;;;;;;;5076634;28;20115;-79
2023/08/07 10:00:11;;;;;;;3.15;0.82;;;;;;;;;;5076233;28;20487;-78
2023/08/07 10:02:36;;;;;;;0.75;0.73;;;;;;;;;;5076718;28;20032;-77
2023/08/07 10:05:04;;;;;;;1.05;0.70;;;;;;;;;;5057616;28;20036;-79
2023/08/07 10:07:30;;;;;;;0.80;0.80;;;;;;;;;;5075256;28;20048;-79
2023/08/07 10:09:55;;;;;;;1.00;0.73;;;;;;;;;;5075340;28;20789;-78
2023/08/07 10:12:20;;;;;;;0.80;0.80;;;;;;;;;;5057791;28;20031;-79
2023/08/07 10:14:49;;;;;;;2.55;0.90;;;;;;;;;;5057859;28;20032;-79
2023/08/07 10:17:14;;;;;;;1.58;0.60;;;;;;;;;;5058471;28;20143;-80
2023/08/07 10:19:40;;;;;;;1.25;0.90;;;;;;;;;;5076719;28;20060;-79
2023/08/07 10:22:08;;;;;;;0.60;0.60;;;;;;;;;;5076906;28;20173;-79
2023/08/07 10:24:39;;;;;;;0.77;0.70;;;;;;;;;;5075891;28;20468;-78
2023/08/07 10:27:06;;;;;;;0.93;0.80;;;;;;;;;;5057227;28;20503;-79
2023/08/07 10:29:33;;;;;;;2.00;0.90;;;;;;;;;;5075782;28;20360;-79
2023/08/07 10:31:58;;;;;;;1.38;0.70;;;;;;;;;;5075553;28;20020;-77
2023/08/07 10:34:24;;;;;;;1.75;0.60;;;;;;;;;;5057680;28;20094;-79
2023/08/07 10:36:49;;;;;;;3.92;0.80;;;;;;;;;;5077231;28;20494;-79
2023/08/07 10:39:15;;;;;;;2.40;0.82;;;;;;;;;;5076748;28;20032;-81
2023/08/07 10:41:44;;;;;;;1.40;0.80;;;;;;;;;;5076177;28;20541;-81
2023/08/07 10:44:24;;;;;;;0.70;0.70;;;;;;;;;;5076293;28;20039;-80
2023/08/07 10:46:51;;;;;;;0.88;0.65;;;;;;;;;;5060277;28;20054;-81
2023/08/07 10:49:37;;;;;;;1.27;0.73;;;;;;;;;;5059195;28;20024;-80
2023/08/07 10:52:14;;;;;;;0.75;0.70;;;;;;;;;;5076304;28;20059;-79
2023/08/07 10:54:44;;;;;;;0.80;0.70;;;;;;;;;;5060276;28;20024;-80
2023/08/07 10:57:12;;;;;;;1.08;0.80;;;;;;;;;;5060628;28;20021;-80
2023/08/07 10:59:37;;;;;;;6.43;0.80;;;;;;;;;;5077752;28;20388;-79
2023/08/07 11:02:07;;;;;;;1.25;0.80;;;;;;;;;;5079020;28;20036;-80
2023/08/07 11:04:36;;;;;;;0.95;0.85;;;;;;;;;;5061895;28;20029;-79
2023/08/07 11:07:02;;;;;;;1.40;0.73;;;;;;;;;;5082872;28;20082;-79
2023/08/07 11:09:27;;;;;;;2.50;0.70;;;;;;;;;;5082858;28;20024;-79
2023/08/07 11:11:52;;;;;;;1.77;0.90;;;;;;;;;;5083950;28;20035;-78
2023/08/07 11:14:19;;;;;;;0.95;0.85;;;;;;;;;;5084566;28;20032;-78
2023/08/07 11:16:46;;;;;;;0.60;0.60;;;;;;;;;;5079754;28;20020;-77
2023/08/07 11:19:13;;;;;;;3.85;0.88;;;;;;;;;;5078935;28;20526;-77
2023/08/07 11:21:40;;;;;;;2.63;0.77;;;;;;;;;;5058818;28;20024;-83
2023/08/07 11:24:06;;;;;;;1.67;0.63;;;;;;;;;;5079232;28;20029;-78
2023/08/07 11:26:31;;;;;;;1.30;0.65;;;;;;;;;;5058938;28;20078;-77
2023/08/07 11:28:56;;;;;;;3.45;0.93;;;;;;;;;;5058860;28;20035;-71
2023/08/07 11:31:24;;;;;;;1.75;0.77;;;;;;;;;;5076068;28;20566;-73
2023/08/07 11:33:54;;;;;;;1.60;1.05;;;;;;;;;;5058046;28;20028;-72
2023/08/07 11:36:20;;;;;;;0.85;0.80;;;;;;;;;;5061869;28;20024;-77
2023/08/07 11:38:45;;;;;;;1.75;0.80;;;;;;;;;;5068280;28;20029;-81
2023/08/07 11:41:15;;;;;;;1.75;0.80;;;;;;;;;;5091284;28;20052;-81
2023/08/07 11:43:41;;;;;;;1.00;0.82;;;;;;;;;;5091072;28;20027;-81
2023/08/07 11:46:09;;;;;;;2.17;1.00;;;;;;;;;;5073522;28;20025;-81
2023/08/07 11:48:36;;;;;;;9.30;1.00;;;;;;;;;;5072107;28;20029;-82
2023/08/07 11:51:02;;;;;;;1.65;0.80;;;;;;;;;;5088027;28;20020;-83
2023/08/07 11:53:30;;;;;;;2.05;0.80;;;;;;;;;;5088926;28;20390;-82
2023/08/07 11:56:09;;;;;;;2.65;1.00;;;;;;;;;;5070923;28;20043;-82
2023/08/07 11:58:35;;;;;;;1.88;0.98;;;;;;;;;;5070826;28;20032;-82
2023/08/07 12:01:11;;;;;;;3.67;0.95;;;;;;;;;;5072352;28;20024;-81
2023/08/07 12:03:38;;;;;;;1.02;0.93;;;;;;;;;;5072264;28;20031;-80
2023/08/07 12:06:05;;;;;;;1.33;0.90;;;;;;;;;;5086378;28;20024;-79
2023/08/07 12:08:41;;;;;;;1.70;1.10;;;;;;;;;;5063825;28;20119;-80
2023/08/07 12:11:15;;;;;;;2.15;1.20;;;;;;;;;;5087732;28;20033;-81
2023/08/07 12:13:42;;;;;;;1.85;0.80;;;;;;;;;;5070764;28;20024;-81
2023/08/07 12:16:15;;;;;;;1.83;1.27;;;;;;;;;;5068556;28;20029;-80
2023/08/07 12:18:43;;;;;;;1.20;0.75;;;;;;;;;;5086711;28;20031;-81
2023/08/07 12:21:09;;;;;;;2.17;1.08;;;;;;;;;;5087907;28;20163;-80
2023/08/07 12:23:36;;;;;;;1.48;0.88;;;;;;;;;;5069507;28;20437;-80
2023/08/07 12:26:02;;;;;;;0.73;0.60;;;;;;;;;;5084140;28;20074;-80
2023/08/07 12:28:27;;;;;;;0.80;0.73;;;;;;;;;;5088364;28;20047;-81
2023/08/07 12:30:53;;;;;;;0.80;0.70;;;;;;;;;;5069025;28;20037;-79
2023/08/07 12:33:18;;;;;;;0.80;0.63;;;;;;;;;;5089242;28;20024;-80
2023/08/07 12:35:44;;;;;;;3.42;0.88;;;;;;;;;;5089931;28;20012;-80
2023/08/07 12:38:10;;;;;;;4.50;0.80;;;;;;;;;;5071736;28;20092;-80
2023/08/07 12:40:36;;;;;;;3.10;0.70;;;;;;;;;;5089005;28;20084;-80
2023/08/07 12:43:04;;;;;;;0.60;0.50;;;;;;;;;;5088569;28;20024;-80
2023/08/07 12:45:30;;;;;;;2.55;0.80;;;;;;;;;;5089204;28;20027;-78
2023/08/07 12:47:55;;;;;;;0.73;0.70;;;;;;;;;;5087357;28;20029;-79
2023/08/07 12:50:21;;;;;;;0.93;0.70;;;;;;;;;;5087030;28;20391;-79
2023/08/07 12:52:46;;;;;;;1.05;0.70;;;;;;;;;;5087635;28;20576;-78
2023/08/07 12:55:11;;;;;;;0.60;0.60;;;;;;;;;;5087967;28;20492;-78
2023/08/07 12:57:37;;;;;;;0.98;0.88;;;;;;;;;;5069346;28;20494;-79
2023/08/07 13:00:04;;;;;;;0.63;0.60;;;;;;;;;;5087295;28;20024;-79
2023/08/07 13:02:29;;;;;;;0.60;0.57;;;;;;;;;;5068510;28;20024;-79
2023/08/07 13:04:55;;;;;;;1.63;0.68;;;;;;;;;;5069641;28;20051;-80
2023/08/07 13:07:20;;;;;;;2.05;0.60;;;;;;;;;;5086940;28;20024;-80
2023/08/07 13:09:45;;;;;;;0.77;0.77;;;;;;;;;;5068127;28;20042;-81
2023/08/07 13:12:11;;;;;;;0.60;0.50;;;;;;;;;;5080692;28;20280;-82
2023/08/07 13:14:36;;;;;;;0.77;0.70;;;;;;;;;;5079647;28;20487;-80
2023/08/07 13:17:01;;;;;;;1.48;0.60;;;;;;;;;;5080539;28;20020;-79
2023/08/07 13:19:26;;;;;;;0.93;0.80;;;;;;;;;;5083736;28;20483;-80
2023/08/07 13:21:52;;;;;;;0.88;0.60;;;;;;;;;;5065728;28;20027;-81
2023/08/07 13:24:17;;;;;;;1.17;0.70;;;;;;;;;;5083241;28;20435;-79
2023/08/07 13:26:45;;;;;;;0.57;0.57;;;;;;;;;;5082416;28;20048;-80
2023/08/07 13:29:11;;;;;;;1.08;0.65;;;;;;;;;;5082081;28;20770;-80
2023/08/07 13:31:36;;;;;;;2.58;0.70;;;;;;;;;;5082075;28;20056;-79
2023/08/07 13:34:07;;;;;;;1.17;0.50;;;;;;;;;;5065767;28;20647;-80
2023/08/07 13:36:32;;;;;;;0.50;0.50;;;;;;;;;;5079827;28;20078;-81
2023/08/07 13:39:00;;;;;;;0.50;0.50;;;;;;;;;;5062215;28;20107;-79
2023/08/07 13:41:25;;;;;;;0.77;0.60;;;;;;;;;;5079435;28;20025;-82
2023/08/07 13:43:50;;;;;;;2.57;0.50;;;;;;;;;;5079098;28;20397;-80
2023/08/07 13:46:16;;;;;;;1.10;0.57;;;;;;;;;;5079834;28;20322;-78
2023/08/07 13:48:41;;;;;;;0.73;0.50;;;;;;;;;;5081757;28;20028;-80
2023/08/07 13:51:08;;;;;;;0.50;0.43;;;;;;;;;;5081074;28;20044;-83
2023/08/07 13:53:33;;;;;;;2.25;0.40;;;;;;;;;;5062852;28;20298;-80
2023/08/07 13:55:59;;;;;;;0.80;0.38;;;;;;;;;;5082258;28;20398;-81
2023/08/07 13:58:24;;;;;;;1.13;0.30;;;;;;;;;;5078264;28;20487;-82
2023/08/07 14:00:50;;;;;;;0.30;0.30;;;;;;;;;;5077684;28;20025;-81
2023/08/07 14:03:15;;;;;;;0.93;0.52;;;;;;;;;;5079180;28;20150;-80
2023/08/07 14:05:41;;;;;;;0.50;0.50;;;;;;;;;;5062873;28;20071;-80
2023/08/07 14:08:06;;;;;;;6.13;0.50;;;;;;;;;;5080408;28;20025;-82
2023/08/07 14:10:31;;;;;;;0.63;0.40;;;;;;;;;;5061583;28;20028;-80
2023/08/07 14:12:56;;;;;;;1.13;0.53;;;;;;;;;;5076326;28;20017;-80
2023/08/07 14:15:22;;;;;;;10.90;0.90;;;;;;;;;;5075210;28;20284;-83
2023/08/07 14:17:47;;;;;;;3.25;0.82;;;;;;;;;;5076691;28;20073;-81
2023/08/07 14:20:12;;;;;;;1.30;0.63;;;;;;;;;;5076141;28;20033;-80
2023/08/07 14:22:38;;;;;;;1.23;0.70;;;;;;;;;;5057211;28;20028;-80
2023/08/07 14:25:04;;;;;;;0.60;0.60;;;;;;;;;;5075550;28;20799;-83
2023/08/07 14:27:30;;;;;;;1.45;1.00;;;;;;;;;;5056919;28;20060;-82
2023/08/07 14:29:55;;;;;;;1.85;0.70;;;;;;;;;;5075835;28;20021;-81
2023/08/07 14:32:20;;;;;;;2.22;1.10;;;;;;;;;;5078248;28;20016;-79
2023/08/07 14:34:47;;;;;;;0.98;0.63;;;;;;;;;;5065795;28;20021;-81
2023/08/07 14:37:13;;;;;;;3.90;0.68;;;;;;;;;;5086430;28;20055;-80